Latest Weather Observations for Hughenden

IDQ60801

Issued at 10:05 pm EST Monday 28 July 2014 (issued every 30 minutes, with the page automatically refreshed every 10 minutes)

About weather observations | Map of weather stations | Latest weather observations for QLD | Other Formats
Station Details ID: 030022 Name: HUGHENDEN AIRPORT Lat: -20.82 Lon: 144.23 Height: 316.4 m
Data from the previous 72 hours. | See also: Recent months at Hughenden
Date/Time
EST
Temp
°C
App
Temp
°C
Dew
Point
Rel
Hum
%
Delta-T
°C
Wind Press
QNH
hPa
Press
MSL
hPa
Rain
since 9 am
mm
Dir
 
Spd
km/h
Gust
km/h
Spd
kts
Gust
kts
28/10:00pm 18.9 15.5 3.9 37 7.2 SE 11 13 6 7 1019.7 - 0.0
28/09:30pm 19.9 16.1 4.0 35 7.7 ESE 13 15 7 8 1019.6 - 0.0
28/09:00pm 19.8 16.1 4.3 36 7.5 SSE 13 15 7 8 1019.5 1018.9 0.0
28/08:30pm 19.4 16.0 4.0 36 7.5 SE 11 13 6 7 1019.3 - 0.0
28/08:00pm 19.3 16.2 3.5 35 7.6 SE 9 11 5 6 1019.1 - 0.0
28/07:30pm 20.7 17.9 3.4 32 8.4 SSE 7 9 4 5 1018.9 - 0.0
28/07:00pm 21.9 18.4 3.6 30 8.9 SSE 11 13 6 7 1018.6 - 0.0
28/06:30pm 23.2 19.7 3.7 28 9.6 SSE 11 13 6 7 1018.2 - 0.0
28/06:00pm 24.9 21.4 3.5 25 10.6 SSE 11 13 6 7 1017.9 1017.3 0.0
28/05:30pm 26.4 22.5 3.6 23 11.5 ESE 13 19 7 10 1017.8 - 0.0
28/05:00pm 27.0 22.7 3.5 22 11.9 ENE 15 20 8 11 1017.6 - 0.0
28/04:30pm 27.2 23.0 3.7 22 11.9 ESE 15 24 8 13 1017.6 - 0.0
28/04:00pm 27.4 22.8 3.8 22 12.0 ESE 17 24 9 13 1017.5 - 0.0
28/03:30pm 27.4 24.0 3.8 22 12.0 NNE 11 24 6 13 1017.6 - 0.0
28/03:00pm 27.1 22.9 3.6 22 11.9 SE 15 26 8 14 1017.8 1017.1 0.0
28/02:30pm 27.1 23.7 4.2 23 11.7 E 11 24 6 13 1018.1 - 0.0
28/02:00pm 26.8 22.7 4.6 24 11.4 E 15 20 8 11 1018.6 - 0.0
28/01:30pm 26.7 22.0 5.1 25 11.2 ENE 19 28 10 15 1019.2 - 0.0
28/01:00pm 27.1 23.3 6.0 26 11.1 E 15 22 8 12 1019.8 - 0.0
28/12:30pm 25.8 21.9 5.4 27 10.6 NNE 15 22 8 12 1020.4 - 0.0
28/12:00pm 25.0 21.1 5.2 28 10.1 SE 15 24 8 13 1020.9 1020.3 0.0
28/11:30am 25.3 20.9 5.0 27 10.4 ENE 17 24 9 13 1021.4 - 0.0
28/11:00am 24.7 19.3 6.4 31 9.6 ENE 24 39 13 21 1021.7 - 0.0
28/10:30am 24.2 19.7 6.9 33 9.1 ENE 20 30 11 16 1021.9 - 0.0
28/10:00am 22.5 18.7 9.0 42 7.3 NNE 19 24 10 13 1022.2 - 0.0
28/09:30am 21.7 18.2 10.2 48 6.3 NNE 19 24 10 13 1022.4 - 0.0
28/09:00am 20.1 17.7 11.3 57 4.9 NE 15 24 8 13 1022.4 1021.8 0.0
28/08:30am 18.5 17.2 11.3 63 4.0 NE 9 15 5 8 1022.2 - 0.0
28/08:00am 17.6 16.7 11.4 67 3.4 E 7 11 4 6 1021.9 - 0.0
28/07:30am 15.1 14.2 10.7 75 2.4 SE 6 7 3 4 1021.8 - 0.0
28/07:00am 14.3 13.3 8.9 70 2.8 E 4 7 2 4 1021.4 - 0.0
28/06:30am 15.5 13.9 10.3 71 2.8 NE 9 15 5 8 1021.1 - 0.0
28/06:00am 13.2 11.2 6.1 62 3.4 ENE 6 7 3 4 1020.9 1020.3 0.0
28/05:30am 12.0 9.0 4.2 59 3.6 ENE 9 13 5 7 1020.6 - 0.0
28/05:00am 11.7 10.5 4.7 62 3.2 CALM 0 0 0 0 1020.3 - 0.0
28/04:30am 12.1 10.8 3.9 57 3.7 CALM 0 0 0 0 1020.3 - 0.0
28/04:00am 13.3 11.4 5.0 57 3.9 E 4 9 2 5 1020.1 - 0.0
28/03:30am 15.5 13.5 6.2 54 4.6 E 6 7 3 4 1020.3 - 0.0
28/03:00am 15.8 12.1 6.5 54 4.6 NNE 15 22 8 12 1020.5 1019.8 0.0
28/02:30am 13.6 11.6 4.2 53 4.4 ESE 4 11 2 6 1020.5 - 0.0
28/02:00am 15.2 12.9 4.9 50 4.9 ESE 6 9 3 5 1020.7 - 0.0
28/01:30am 16.9 14.2 5.8 48 5.5 E 9 13 5 7 1020.8 - 0.0
28/01:00am 17.3 14.3 6.2 48 5.5 ESE 11 15 6 8 1020.9 - 0.0
28/12:30am 17.5 14.9 6.1 47 5.7 ESE 9 11 5 6 1021.2 - 0.0
28/12:00am 18.1 15.1 6.0 45 6.0 ESE 11 13 6 7 1021.4 1020.8 0.0
 
Date/Time
EST
Temp
°C
App
Temp
°C
Dew
Point
Rel
Hum
%
Delta-T
°C
Wind Press
QNH
hPa
Press
MSL
hPa
Rain
since 9 am
mm
Dir
 
Spd
km/h
Gust
km/h
Spd
kts
Gust
kts
27/11:30pm 19.2 15.4 5.6 41 6.8 ESE 15 17 8 9 1021.5 - 0.0
27/11:00pm 20.5 16.4 6.4 40 7.2 ESE 17 24 9 13 1021.6 - 0.0
27/10:30pm 19.4 16.2 5.1 39 7.1 E 11 15 6 8 1021.6 - 0.0
27/10:00pm 20.7 16.2 5.9 38 7.5 ESE 19 22 10 12 1021.6 - 0.0
27/09:30pm 19.8 15.9 5.5 39 7.1 SE 15 17 8 9 1021.5 - 0.0
27/09:00pm 19.1 15.4 4.5 38 7.1 SE 13 13 7 7 1021.4 1020.8 0.0
27/08:30pm 19.7 16.5 5.0 38 7.3 SE 11 13 6 7 1021.3 - 0.0
27/08:00pm 20.6 17.0 5.0 36 7.8 SE 13 13 7 7 1021.0 - 0.0
27/07:30pm 21.3 18.0 4.4 33 8.4 SE 11 13 6 7 1020.7 - 0.0
27/07:00pm 22.9 19.3 4.9 31 9.1 SSE 13 15 7 8 1020.4 - 0.0
27/06:30pm 23.6 20.3 4.5 29 9.6 SE 11 13 6 7 1019.9 - 0.0
27/06:00pm 25.0 21.6 4.2 26 10.5 SE 11 15 6 8 1019.6 1019.0 0.0
27/05:30pm 26.4 22.3 4.2 24 11.3 SE 15 20 8 11 1019.4 - 0.0
27/05:00pm 27.1 22.6 4.2 23 11.7 ESE 17 24 9 13 1019.3 - 0.0
27/04:30pm 27.1 22.7 4.8 24 11.5 ESE 17 22 9 12 1019.3 - 0.0
27/04:00pm 27.7 23.4 5.3 24 11.7 SE 17 32 9 17 1019.3 - 0.0
27/03:30pm 28.2 23.3 5.1 23 12.1 SE 20 30 11 16 1019.4 - 0.0
27/03:00pm 28.5 24.4 6.0 24 11.9 ESE 17 28 9 15 1019.5 1018.9 0.0
27/02:30pm 27.7 23.3 7.5 28 11.0 ESE 20 28 11 15 1019.8 - 0.0
27/02:00pm 27.4 22.6 7.3 28 10.9 ESE 22 32 12 17 1020.3 - 0.0
27/01:30pm 27.3 22.6 7.7 29 10.7 ESE 22 35 12 19 1020.7 - 0.0
27/01:00pm 26.4 21.7 7.9 31 10.1 SE 22 35 12 19 1021.3 - 0.0
27/12:30pm 26.3 21.9 8.8 33 9.7 ESE 22 32 12 17 1021.9 - 0.0
27/12:00pm 25.8 21.0 8.8 34 9.3 ESE 24 33 13 18 1022.5 1021.9 0.0
27/11:30am 24.7 20.4 9.4 38 8.5 ESE 22 32 12 17 1022.9 - 0.0
27/11:00am 24.4 20.8 10.7 42 7.7 ESE 20 28 11 15 1023.3 - 0.0
27/10:30am 23.3 20.1 11.4 47 6.8 E 19 24 10 13 1023.8 - 0.0
27/10:00am 22.1 18.8 11.5 51 6.0 E 20 24 11 13 1024.0 - 0.0
27/09:30am 21.3 19.2 12.4 57 5.1 E 15 22 8 12 1024.0 - 0.0
27/09:00am 19.7 17.2 12.2 62 4.2 ESE 17 20 9 11 1023.9 1023.3 0.0
27/08:30am 18.4 15.8 11.9 66 3.6 E 17 22 9 12 1023.7 - 0.0
27/08:00am 17.2 16.0 11.7 70 3.0 ESE 9 13 5 7 1023.4 - 0.0
27/07:30am 14.8 12.9 10.6 76 2.2 ESE 11 13 6 7 1023.2 - 0.0
27/07:00am 13.7 11.7 10.1 79 1.9 ESE 11 13 6 7 1022.9 - 0.0
27/06:30am 13.6 11.5 9.8 78 2.0 ESE 11 13 6 7 1022.5 - 0.0
27/06:00am 13.9 11.8 9.9 77 2.1 ESE 11 13 6 7 1022.5 1021.9 0.0
27/05:30am 14.7 12.0 10.3 75 2.3 ESE 15 17 8 9 1022.1 - 0.0
27/05:00am 15.2 12.6 10.6 74 2.5 SE 15 17 8 9 1021.8 - 0.0
27/04:30am 15.0 12.6 10.2 73 2.6 SE 13 13 7 7 1021.7 - 0.0
27/04:00am 15.7 13.1 10.7 72 2.7 ESE 15 19 8 10 1021.7 - 0.0
27/03:30am 15.4 12.7 10.4 72 2.7 SE 15 17 8 9 1021.7 - 0.0
27/03:00am 15.7 13.4 10.5 71 2.8 ESE 13 15 7 8 1021.9 1021.3 0.0
27/02:30am 15.7 13.7 10.2 70 2.9 E 11 15 6 8 1022.0 - 0.0
27/02:00am 16.4 14.5 10.5 68 3.2 ESE 11 15 6 8 1022.1 - 0.0
27/01:30am 17.1 15.2 10.5 65 3.6 E 11 15 6 8 1022.3 - 0.0
27/01:00am 18.2 15.7 11.0 63 4.0 E 15 19 8 10 1022.7 - 0.0
27/12:30am 18.5 15.9 10.8 61 4.2 E 15 20 8 11 1022.8 - 0.0
27/12:00am 18.4 15.8 10.7 61 4.2 ESE 15 17 8 9 1023.1 1022.5 0.0
 
Date/Time
EST
Temp
°C
App
Temp
°C
Dew
Point
Rel
Hum
%
Delta-T
°C
Wind Press
QNH
hPa
Press
MSL
hPa
Rain
since 9 am
mm
Dir
 
Spd
km/h
Gust
km/h
Spd
kts
Gust
kts
26/11:30pm 18.7 16.5 10.8 60 4.3 E 13 15 7 8 1023.0 - 0.0
26/11:00pm 18.4 16.1 10.3 59 4.4 ESE 13 15 7 8 1023.2 - 0.0
26/10:30pm 19.0 17.0 10.3 57 4.7 ESE 11 15 6 8 1023.2 - 0.0
26/10:00pm 20.3 18.4 10.4 53 5.4 E 11 15 6 8 1023.3 - 0.0
26/09:30pm 21.2 18.5 10.4 50 6.0 E 15 19 8 10 1023.3 - 0.0
26/09:00pm 22.1 18.5 10.6 48 6.4 E 20 26 11 14 1023.2 1022.6 0.0
26/08:30pm 22.2 19.5 10.4 47 6.6 E 15 19 8 10 1023.0 - 0.0
26/08:00pm 21.4 18.5 9.6 47 6.4 E 15 15 8 8 1022.9 - 0.0
26/07:30pm 21.7 19.5 9.3 45 6.7 SE 11 13 6 7 1022.8 - 0.0
26/07:00pm 22.9 20.2 9.0 41 7.6 ESE 13 17 7 9 1022.3 - 0.0
26/06:30pm 24.2 21.0 8.6 37 8.5 ESE 15 17 8 9 1021.9 - 0.0
26/06:00pm 25.2 22.1 8.7 35 9.0 SE 15 20 8 11 1021.4 1020.8 0.0
26/05:30pm 26.5 22.9 8.5 32 9.9 SE 17 22 9 12 1021.1 - 0.0
26/05:00pm 26.6 22.6 8.1 31 10.1 ESE 19 24 10 13 1020.8 - 0.0
26/04:30pm 26.8 23.2 8.3 31 10.1 ESE 17 26 9 14 1020.7 - 0.0
26/04:00pm 27.4 24.7 8.8 31 10.3 SSE 13 26 7 14 1020.5 - 0.0
26/03:30pm 27.1 24.3 8.5 31 10.3 ESE 13 20 7 11 1020.4 - 0.0
26/03:00pm 27.0 23.8 8.4 31 10.2 SE 15 19 8 10 1020.3 1019.6 0.0
26/02:30pm 26.5 23.3 8.5 32 9.9 ESE 15 20 8 11 1020.6 - 0.0
26/02:00pm 27.1 24.0 10.3 35 9.5 E 17 20 9 11 1021.0 - 0.0
26/01:30pm 27.0 25.7 11.1 37 9.1 SSE 9 17 5 9 1021.3 - 0.0
26/01:00pm 25.6 24.3 11.4 41 8.2 E 9 15 5 8 1021.9 - 0.0
26/12:30pm 25.0 23.5 11.9 44 7.6 ENE 11 15 6 8 1022.3 - 0.0
26/12:00pm 24.5 22.2 11.8 45 7.3 ENE 15 20 8 11 1022.5 1021.9 0.0
26/11:30am 23.9 22.1 12.2 48 6.8 E 13 17 7 9 1023.2 - 0.0
26/11:00am 23.2 21.2 12.8 52 6.1 NE 15 20 8 11 1023.6 - 0.0
26/10:30am 21.8 19.6 13.4 59 4.9 NE 17 20 9 11 1023.8 - 0.0
26/10:00am 21.1 19.5 13.8 63 4.3 ENE 15 19 8 10 1024.0 - 0.0
26/09:30am 19.8 18.8 13.3 66 3.8 ENE 11 13 6 7 1023.9 - 0.0
26/09:00am 19.5 18.1 13.4 68 3.5 ENE 13 15 7 8 1023.8 1023.2 0.0
26/08:30am 18.9 17.5 13.3 70 3.2 ENE 13 15 7 8 1023.6 - 0.0
26/08:00am 18.7 17.2 13.1 70 3.2 NE 13 17 7 9 1023.7 - 0.0
26/07:30am 18.8 17.2 12.8 68 3.4 ENE 13 17 7 9 1023.6 - 0.0
26/07:00am 18.9 16.9 12.6 67 3.6 ENE 15 20 8 11 1023.0 - 0.0
26/06:30am 18.9 16.8 12.4 66 3.7 ENE 15 19 8 10 1022.8 - 0.0
26/06:00am 19.2 17.0 12.2 64 3.9 ENE 15 19 8 10 1022.6 1022.0 0.0
26/05:30am 19.6 17.7 11.9 61 4.3 ENE 13 19 7 10 1022.3 - 0.0
26/05:00am 19.8 17.0 11.3 58 4.7 ENE 17 22 9 12 1021.9 - 0.0
26/04:30am 19.9 17.4 11.1 57 4.9 ENE 15 20 8 11 1022.0 - 0.0
26/04:00am 20.0 17.8 10.7 55 5.1 NE 13 19 7 10 1022.0 - 0.0
26/03:30am 20.2 17.9 10.6 54 5.3 ENE 13 17 7 9 1021.6 - 0.0
26/03:00am 19.8 18.4 12.1 61 4.3 ENE 11 17 6 9 1021.5 1020.9 0.0
26/02:30am 20.0 20.0 12.3 61 4.4 ENE 4 7 2 4 1021.7 - 0.0
26/02:00am 20.2 19.3 12.7 62 4.3 NE 9 13 5 7 1021.6 - 0.0
26/01:30am 20.3 18.3 12.8 62 4.3 NE 15 19 8 10 1021.6 - 0.0
26/01:00am 20.5 19.1 13.5 64 4.1 ENE 13 17 7 9 1021.9 - 0.0
26/12:30am 20.5 19.9 13.5 64 4.1 ENE 9 13 5 7 1022.1 - 0.0
26/12:00am 20.7 20.1 13.4 63 4.2 NE 9 15 5 8 1022.4 1021.8 0.0
 
Date/Time
EST
Temp
°C
App
Temp
°C
Dew
Point
Rel
Hum
%
Delta-T
°C
Wind Press
QNH
hPa
Press
MSL
hPa
Rain
since 9 am
mm
Dir
 
Spd
km/h
Gust
km/h
Spd
kts
Gust
kts
25/11:30pm 21.3 19.5 13.2 60 4.7 NNE 15 22 8 12 1022.3 - 0.0
25/11:00pm 21.4 20.3 13.1 59 4.8 NE 11 15 6 8 1022.4 - 0.0
25/10:30pm 21.6 20.5 13.0 58 5.0 NE 11 13 6 7 1022.4 - 0.0

Other Formats:

Comma delimited format used in spreadsheet applications
http://www.bom.gov.au/fwo/IDQ60801/IDQ60801.94343.axf

JavaScript Object Notation format (JSON) in row-major order
http://www.bom.gov.au/fwo/IDQ60801/IDQ60801.94343.json